createdAt,value
2019-05-20T00:00:04.807Z,13.80
2019-05-20T00:01:04.989Z,13.80
2019-05-20T00:02:21.646Z,13.70
2019-05-20T00:03:04.829Z,13.80
2019-05-20T00:04:04.843Z,13.80
2019-05-20T00:05:07.506Z,13.70
2019-05-20T00:06:08.208Z,13.70
2019-05-20T00:07:05.447Z,13.70
2019-05-20T00:08:05.445Z,13.70
2019-05-20T00:09:07.997Z,13.70
2019-05-20T00:10:07.498Z,13.60
2019-05-20T00:11:05.377Z,13.70
2019-05-20T00:12:08.152Z,13.60
2019-05-20T00:13:07.614Z,13.60
2019-05-20T00:14:05.423Z,13.60
2019-05-20T00:15:05.379Z,13.60
2019-05-20T00:16:05.338Z,13.60
2019-05-20T00:17:07.874Z,13.60
2019-05-20T00:18:07.326Z,13.60
2019-05-20T00:19:07.894Z,13.60
2019-05-20T00:20:04.814Z,13.60
2019-05-20T00:21:07.503Z,13.60
2019-05-20T00:22:13.089Z,13.60
2019-05-20T00:23:04.945Z,13.60
2019-05-20T00:24:07.459Z,13.60
2019-05-20T00:25:05.277Z,13.60
2019-05-20T00:26:05.356Z,13.60
2019-05-20T00:27:05.350Z,13.60
2019-05-20T00:28:05.303Z,13.60
2019-05-20T00:29:05.283Z,13.60
2019-05-20T00:30:05.397Z,13.60
2019-05-20T00:31:05.436Z,13.50
2019-05-20T00:32:07.994Z,13.50
2019-05-20T00:33:04.909Z,13.50
2019-05-20T00:34:07.438Z,13.50
2019-05-20T00:35:05.340Z,13.50
2019-05-20T00:36:07.976Z,13.50
2019-05-20T00:37:04.830Z,13.40
2019-05-20T00:38:04.948Z,13.50
2019-05-20T00:39:07.666Z,13.50
2019-05-20T00:40:05.510Z,13.50
2019-05-20T00:41:05.468Z,13.00
2019-05-20T00:42:05.683Z,13.50
2019-05-20T00:43:04.782Z,13.50
2019-05-20T00:44:04.766Z,13.50
2019-05-20T00:45:05.357Z,13.50
2019-05-20T00:46:08.029Z,13.50
2019-05-20T00:47:07.547Z,13.40
2019-05-20T00:48:05.393Z,13.40
2019-05-20T00:49:05.340Z,13.40
2019-05-20T00:50:05.384Z,13.40
2019-05-20T00:51:07.900Z,13.50
2019-05-20T00:52:07.317Z,13.40
2019-05-20T00:53:05.178Z,13.40
2019-05-20T00:54:05.162Z,13.50
2019-05-20T00:55:05.314Z,13.40
2019-05-20T00:56:07.809Z,13.40
2019-05-20T00:57:04.660Z,13.40
2019-05-20T00:58:07.168Z,13.40
2019-05-20T00:59:05.011Z,13.40
2019-05-20T01:00:05.091Z,13.40
2019-05-20T01:01:05.204Z,13.40
2019-05-20T01:02:05.224Z,13.40
2019-05-20T01:03:05.197Z,13.40
2019-05-20T01:04:05.178Z,13.40
2019-05-20T01:05:05.112Z,13.40
2019-05-20T01:06:07.600Z,13.40
2019-05-20T01:07:05.547Z,13.40
2019-05-20T01:08:04.706Z,13.40
2019-05-20T01:09:04.689Z,13.40
2019-05-20T01:10:07.309Z,13.40
2019-05-20T01:11:05.192Z,13.40
2019-05-20T01:12:05.117Z,13.40
2019-05-20T01:13:05.227Z,13.40
2019-05-20T01:14:05.229Z,13.40
2019-05-20T01:15:07.754Z,13.40
2019-05-20T01:16:08.080Z,13.40
2019-05-20T01:17:05.014Z,13.40
2019-05-20T01:18:07.581Z,13.40
2019-05-20T01:19:08.044Z,13.40
2019-05-20T01:20:05.046Z,13.30
2019-05-20T01:21:07.629Z,13.30
2019-05-20T01:22:05.498Z,13.30
2019-05-20T01:23:05.495Z,13.30
2019-05-20T01:24:05.429Z,13.30
2019-05-20T01:25:07.897Z,13.30
2019-05-20T01:26:04.685Z,13.30
2019-05-20T01:27:04.673Z,13.30
2019-05-20T01:28:04.595Z,13.40
2019-05-20T01:29:08.070Z,13.30
2019-05-20T01:30:04.958Z,13.30
2019-05-20T01:31:07.508Z,13.30
2019-05-20T01:32:08.062Z,13.30
2019-05-20T01:33:13.103Z,13.40
2019-05-20T01:34:05.339Z,13.30
2019-05-20T01:35:05.423Z,13.30
2019-05-20T01:36:08.005Z,13.30
2019-05-20T01:37:04.797Z,13.30
2019-05-20T01:38:04.757Z,13.30
2019-05-20T01:39:04.732Z,13.30
2019-05-20T01:40:07.324Z,13.30
2019-05-20T01:41:05.192Z,13.20
2019-05-20T01:42:07.686Z,13.30
2019-05-20T01:43:05.504Z,13.30
2019-05-20T01:44:05.443Z,13.30
2019-05-20T01:45:07.337Z,13.30
2019-05-20T01:46:05.124Z,13.20
2019-05-20T01:47:05.289Z,13.20
2019-05-20T01:48:07.866Z,13.30
2019-05-20T01:49:07.186Z,13.30
2019-05-20T01:50:05.018Z,13.30
2019-05-20T01:51:04.997Z,13.30
2019-05-20T01:52:07.590Z,13.30
2019-05-20T01:53:07.968Z,13.30
2019-05-20T01:54:04.814Z,13.30
2019-05-20T01:55:04.896Z,13.40
2019-05-20T01:56:05.334Z,13.30
2019-05-20T01:57:05.278Z,13.40
2019-05-20T01:58:04.945Z,13.40
2019-05-20T01:59:07.852Z,13.40
2019-05-20T02:00:07.221Z,13.40
2019-05-20T02:01:05.024Z,13.30
2019-05-20T02:02:07.545Z,13.40
2019-05-20T02:03:05.401Z,13.40
2019-05-20T02:04:07.176Z,13.40
2019-05-20T02:05:05.013Z,13.40
2019-05-20T02:06:07.615Z,13.40
2019-05-20T02:07:05.402Z,13.40
2019-05-20T02:08:05.434Z,13.40
2019-05-20T02:09:07.501Z,13.40
2019-05-20T02:10:07.939Z,13.40
2019-05-20T02:11:04.865Z,13.40
2019-05-20T02:12:04.799Z,13.40
2019-05-20T02:13:07.297Z,13.40
2019-05-20T02:14:05.221Z,13.40
2019-05-20T02:15:05.215Z,13.40
2019-05-20T02:16:05.222Z,13.40
2019-05-20T02:17:05.444Z,13.40
2019-05-20T02:18:05.542Z,13.40
2019-05-20T02:19:05.585Z,13.40
2019-05-20T02:20:05.597Z,13.40
2019-05-20T02:21:05.268Z,13.30
2019-05-20T02:22:07.400Z,13.30
2019-05-20T02:23:07.824Z,13.30
2019-05-20T02:24:04.604Z,13.30
2019-05-20T02:25:04.696Z,13.30
2019-05-20T02:26:07.306Z,13.40
2019-05-20T02:27:07.717Z,13.30
2019-05-20T02:28:07.137Z,13.30
2019-05-20T02:29:04.926Z,13.30
2019-05-20T02:30:07.520Z,13.30
2019-05-20T02:31:05.505Z,13.30
2019-05-20T02:32:08.122Z,13.30
2019-05-20T02:33:07.417Z,13.30
2019-05-20T02:34:05.451Z,13.30
2019-05-20T02:35:05.534Z,13.30
2019-05-20T02:36:05.557Z,13.30
2019-05-20T02:37:05.538Z,13.30
2019-05-20T02:38:05.603Z,13.30
2019-05-20T02:39:08.096Z,13.30
2019-05-20T02:40:07.406Z,13.20
2019-05-20T02:41:05.249Z,13.20
2019-05-20T02:42:05.312Z,13.20
2019-05-20T02:43:05.411Z,13.20
2019-05-20T02:44:05.520Z,13.20
2019-05-20T02:45:04.886Z,13.30
2019-05-20T02:46:07.517Z,13.20
2019-05-20T02:47:05.381Z,13.20
2019-05-20T02:48:07.855Z,13.20
2019-05-20T02:49:07.308Z,13.20
2019-05-20T02:50:07.676Z,13.10
2019-05-20T02:51:05.657Z,13.10
2019-05-20T02:52:04.702Z,13.10
2019-05-20T02:53:04.675Z,13.10
2019-05-20T02:54:04.782Z,13.10
2019-05-20T02:55:04.849Z,13.10
2019-05-20T02:56:04.966Z,13.10
2019-05-20T02:57:05.187Z,13.10
2019-05-20T02:58:07.671Z,13.00
2019-05-20T02:59:08.033Z,13.10
2019-05-20T03:00:04.993Z,13.00
2019-05-20T03:01:05.053Z,13.00
2019-05-20T03:02:10.103Z,13.00
2019-05-20T03:03:05.100Z,12.90
2019-05-20T03:04:11.888Z,13.00
2019-05-20T03:05:05.198Z,12.90
2019-05-20T03:06:07.763Z,12.90
2019-05-20T03:07:07.250Z,12.90
2019-05-20T03:08:07.703Z,12.90
2019-05-20T03:09:12.254Z,12.90
2019-05-20T03:10:05.492Z,12.90
2019-05-20T03:11:05.506Z,12.90
2019-05-20T03:12:05.462Z,12.90
2019-05-20T03:13:05.565Z,12.90
2019-05-20T03:14:08.224Z,12.90
2019-05-20T03:15:07.620Z,12.90
2019-05-20T03:16:05.457Z,12.90
2019-05-20T03:17:05.458Z,12.90
2019-05-20T03:18:08.020Z,12.90
2019-05-20T03:19:09.161Z,12.90
2019-05-20T03:20:05.089Z,12.90
2019-05-20T03:21:05.557Z,12.90
2019-05-20T03:22:05.274Z,12.80
2019-05-20T03:23:08.007Z,12.80
2019-05-20T03:24:04.982Z,12.80
2019-05-20T03:25:05.106Z,12.80
2019-05-20T03:26:10.329Z,12.80
2019-05-20T03:27:10.406Z,12.80
2019-05-20T03:28:07.918Z,12.80
2019-05-20T03:29:04.741Z,12.80
2019-05-20T03:30:04.905Z,12.80
2019-05-20T03:31:04.897Z,12.80
2019-05-20T03:32:04.919Z,12.80
2019-05-20T03:33:10.148Z,12.70
2019-05-20T03:34:07.608Z,12.80
2019-05-20T03:35:08.076Z,12.80
2019-05-20T03:36:05.102Z,12.80
2019-05-20T03:37:07.832Z,12.80
2019-05-20T03:38:07.286Z,12.80
2019-05-20T03:39:05.346Z,12.70
2019-05-20T03:40:05.368Z,12.80
2019-05-20T03:41:07.969Z,12.70
2019-05-20T03:42:04.914Z,12.70
2019-05-20T03:43:05.124Z,12.80
2019-05-20T03:44:05.163Z,12.80
2019-05-20T03:45:08.149Z,12.70
2019-05-20T03:46:05.034Z,12.70
2019-05-20T03:47:05.000Z,12.70
2019-05-20T03:48:12.690Z,12.70
2019-05-20T03:49:05.572Z,12.70
2019-05-20T03:50:05.520Z,12.70
2019-05-20T03:51:05.618Z,12.70
2019-05-20T03:52:04.621Z,12.60
2019-05-20T03:53:04.625Z,12.70
2019-05-20T03:54:04.684Z,12.70
2019-05-20T03:55:07.487Z,12.70
2019-05-20T03:56:10.460Z,12.70
2019-05-20T03:57:05.322Z,12.60
2019-05-20T03:58:05.291Z,12.70
2019-05-20T03:59:05.392Z,12.60
2019-05-20T04:00:10.489Z,12.70
2019-05-20T04:01:10.368Z,12.70
2019-05-20T04:02:07.903Z,12.70
2019-05-20T04:03:07.299Z,12.70
2019-05-20T04:04:07.757Z,12.80
2019-05-20T04:05:04.617Z,12.70
2019-05-20T04:06:04.633Z,12.80
2019-05-20T04:07:04.642Z,12.70
2019-05-20T04:08:04.635Z,12.80
2019-05-20T04:09:07.158Z,12.80
2019-05-20T04:10:05.082Z,12.80
2019-05-20T04:11:05.253Z,12.80
2019-05-20T04:12:05.323Z,12.80
2019-05-20T04:13:05.358Z,12.80
2019-05-20T04:14:05.454Z,12.80
2019-05-20T04:15:05.531Z,12.80
2019-05-20T04:16:04.777Z,12.80
2019-05-20T04:17:07.515Z,12.80
2019-05-20T04:18:08.021Z,12.80
2019-05-20T04:19:04.884Z,12.80
2019-05-20T04:20:04.941Z,12.80
2019-05-20T04:21:10.219Z,12.80
2019-05-20T04:22:05.066Z,12.80
2019-05-20T04:23:05.053Z,12.80
2019-05-20T04:24:07.743Z,12.80
2019-05-20T04:25:05.051Z,12.80
2019-05-20T04:26:05.450Z,12.80
2019-05-20T04:27:07.237Z,12.80
2019-05-20T04:28:07.612Z,12.80
2019-05-20T04:29:05.410Z,12.80
2019-05-20T04:30:05.481Z,12.80
2019-05-20T04:31:05.588Z,12.80
2019-05-20T04:32:04.672Z,12.80
2019-05-20T04:33:07.226Z,12.80
2019-05-20T04:34:07.618Z,12.80
2019-05-20T04:35:20.364Z,12.80
2019-05-20T04:36:05.180Z,12.80
2019-05-20T04:37:04.566Z,12.80
2019-05-20T04:38:08.118Z,12.80
2019-05-20T04:39:04.956Z,12.80
2019-05-20T04:40:04.958Z,12.80
2019-05-20T04:41:05.392Z,12.80
2019-05-20T04:42:06.608Z,12.80
2019-05-20T04:43:05.071Z,12.80
2019-05-20T04:44:07.576Z,12.80
2019-05-20T04:45:05.501Z,12.80
2019-05-20T04:46:05.543Z,12.90
2019-05-20T04:47:04.735Z,12.90
2019-05-20T04:48:04.655Z,12.90
2019-05-20T04:49:04.717Z,12.90
2019-05-20T04:50:11.145Z,12.90
2019-05-20T04:51:04.995Z,12.90
2019-05-20T04:52:07.725Z,12.90
2019-05-20T04:53:08.083Z,13.00
2019-05-20T04:54:04.905Z,12.90
2019-05-20T04:55:04.970Z,12.90
2019-05-20T04:56:07.561Z,12.90
2019-05-20T04:57:07.968Z,13.00
2019-05-20T04:58:07.274Z,13.00
2019-05-20T04:59:07.596Z,13.00
2019-05-20T05:00:05.381Z,13.00
2019-05-20T05:01:05.513Z,13.00
2019-05-20T05:02:05.523Z,13.00
2019-05-20T05:03:05.527Z,13.00
2019-05-20T05:04:08.057Z,13.10
2019-05-20T05:05:07.515Z,13.00
2019-05-20T05:06:05.360Z,13.10
2019-05-20T05:07:05.418Z,13.00
2019-05-20T05:08:05.472Z,13.00
2019-05-20T05:09:05.550Z,13.00
2019-05-20T05:10:05.612Z,13.00
2019-05-20T05:11:04.642Z,13.10
2019-05-20T05:12:04.771Z,13.10
2019-05-20T05:13:04.762Z,13.10
2019-05-20T05:14:04.756Z,13.10
2019-05-20T05:15:07.634Z,13.10
2019-05-20T05:16:05.054Z,13.10
2019-05-20T05:17:05.048Z,13.10
2019-05-20T05:18:07.581Z,13.10
2019-05-20T05:19:05.361Z,13.10
2019-05-20T05:20:05.500Z,13.10
2019-05-20T05:21:05.558Z,13.10
2019-05-20T05:22:08.073Z,13.20
2019-05-20T05:23:04.860Z,13.10
2019-05-20T05:24:05.148Z,13.20
2019-05-20T05:25:07.700Z,13.20
2019-05-20T05:26:08.041Z,13.20
2019-05-20T05:27:10.035Z,13.20
2019-05-20T05:28:05.020Z,13.20
2019-05-20T05:29:07.532Z,13.20
2019-05-20T05:30:05.310Z,13.20
2019-05-20T05:31:05.242Z,13.20
2019-05-20T05:32:07.677Z,13.20
2019-05-20T05:33:05.474Z,13.20
2019-05-20T05:34:05.547Z,13.20
2019-05-20T05:35:05.533Z,13.20
2019-05-20T05:36:08.098Z,13.20
2019-05-20T05:37:04.935Z,13.20
2019-05-20T05:38:05.129Z,13.30
2019-05-20T05:39:05.353Z,13.30
2019-05-20T05:40:07.976Z,13.30
2019-05-20T05:41:07.831Z,13.30
2019-05-20T05:42:07.132Z,13.30
2019-05-20T05:43:07.454Z,13.30
2019-05-20T05:44:05.285Z,13.30
2019-05-20T05:45:05.633Z,13.30
2019-05-20T05:46:04.587Z,13.30
2019-05-20T05:47:08.049Z,13.30
2019-05-20T05:48:07.526Z,13.30
2019-05-20T05:49:07.974Z,13.40
2019-05-20T05:50:04.769Z,13.40
2019-05-20T05:51:04.752Z,13.40
2019-05-20T05:52:04.706Z,13.40
2019-05-20T05:53:07.249Z,13.40
2019-05-20T05:54:07.615Z,13.40
2019-05-20T05:55:05.504Z,13.50
2019-05-20T05:56:05.555Z,13.50
2019-05-20T05:57:05.534Z,13.50
2019-05-20T05:58:08.478Z,13.50
2019-05-20T05:59:07.406Z,13.50
2019-05-20T06:00:07.791Z,13.60
2019-05-20T06:01:05.715Z,13.50
2019-05-20T06:02:04.732Z,13.60
2019-05-20T06:03:04.673Z,13.50
2019-05-20T06:04:04.618Z,13.50
2019-05-20T06:05:04.640Z,13.60
2019-05-20T06:06:12.448Z,13.60
2019-05-20T06:07:05.515Z,13.60
2019-05-20T06:08:04.799Z,13.60
2019-05-20T06:09:04.793Z,13.60
2019-05-20T06:10:10.563Z,13.70
2019-05-20T06:11:05.006Z,13.70
2019-05-20T06:12:07.801Z,13.70
2019-05-20T06:13:05.211Z,13.80
2019-05-20T06:14:05.879Z,13.80
2019-05-20T06:15:07.623Z,13.80
2019-05-20T06:16:07.395Z,13.90
2019-05-20T06:17:05.450Z,13.80
2019-05-20T06:18:05.485Z,13.90
2019-05-20T06:19:05.545Z,13.90
2019-05-20T06:20:05.619Z,13.90
2019-05-20T06:21:05.668Z,14.00
2019-05-20T06:22:04.686Z,14.10
2019-05-20T06:23:04.671Z,14.10
2019-05-20T06:24:09.654Z,14.20
2019-05-20T06:25:08.175Z,14.30
2019-05-20T06:26:10.334Z,14.30
2019-05-20T06:27:05.366Z,14.30
2019-05-20T06:28:05.459Z,14.40
2019-05-20T06:29:08.001Z,14.50
2019-05-20T06:30:07.330Z,14.60
2019-05-20T06:31:05.083Z,14.60
2019-05-20T06:32:05.070Z,14.60
2019-05-20T06:33:05.024Z,14.70
2019-05-20T06:34:07.676Z,14.80
2019-05-20T06:35:05.526Z,14.80
2019-05-20T06:36:05.537Z,14.80
2019-05-20T06:37:05.613Z,14.90
2019-05-20T06:38:09.726Z,14.90
2019-05-20T06:39:08.182Z,14.90
2019-05-20T06:40:05.071Z,15.00
2019-05-20T06:41:05.092Z,15.00
2019-05-20T06:42:07.591Z,15.00
2019-05-20T06:43:05.405Z,14.90
2019-05-20T06:44:05.465Z,15.00
2019-05-20T06:45:04.806Z,15.00
2019-05-20T06:46:09.877Z,15.10
2019-05-20T06:47:07.415Z,15.10
2019-05-20T06:48:07.792Z,15.10
2019-05-20T06:49:04.596Z,15.10
2019-05-20T06:50:08.127Z,15.20
2019-05-20T06:51:05.024Z,15.20
2019-05-20T06:52:07.547Z,15.20
2019-05-20T06:53:05.298Z,15.20
2019-05-20T06:54:05.234Z,15.20
2019-05-20T06:55:07.755Z,15.30
2019-05-20T06:56:05.715Z,15.30
2019-05-20T06:57:04.757Z,15.40
2019-05-20T06:58:07.845Z,15.40
2019-05-20T06:59:07.298Z,15.50
2019-05-20T07:00:05.212Z,15.50
2019-05-20T07:01:07.690Z,15.60
2019-05-20T07:02:08.110Z,15.60
2019-05-20T07:03:04.931Z,15.60
2019-05-20T07:04:04.871Z,15.60
2019-05-20T07:05:04.818Z,15.70
2019-05-20T07:06:07.511Z,15.80
2019-05-20T07:07:19.840Z,15.70
2019-05-20T07:08:05.188Z,15.80
2019-05-20T07:09:05.185Z,15.80
2019-05-20T07:10:05.160Z,15.80
2019-05-20T07:11:07.689Z,15.80
2019-05-20T07:12:08.231Z,15.90
2019-05-20T07:13:05.087Z,15.80
2019-05-20T07:14:05.118Z,15.90
2019-05-20T07:15:05.093Z,16.00
2019-05-20T07:16:05.131Z,16.00
2019-05-20T07:17:05.066Z,15.90
2019-05-20T07:18:05.321Z,16.00
2019-05-20T07:19:05.334Z,16.00
2019-05-20T07:20:05.340Z,16.00
2019-05-20T07:21:07.877Z,16.10
2019-05-20T07:22:04.638Z,16.10
2019-05-20T07:23:07.152Z,16.10
2019-05-20T07:24:04.962Z,16.10
2019-05-20T07:25:04.986Z,16.20
2019-05-20T07:26:07.515Z,16.30
2019-05-20T07:27:05.592Z,16.30
2019-05-20T07:28:05.592Z,16.30
2019-05-20T07:29:05.715Z,16.40
2019-05-20T07:30:07.414Z,16.50
2019-05-20T07:31:08.026Z,16.60
2019-05-20T07:32:04.869Z,16.60
2019-05-20T07:33:07.403Z,16.70
2019-05-20T07:34:05.392Z,16.70
2019-05-20T07:35:07.946Z,16.80
2019-05-20T07:36:04.763Z,16.80
2019-05-20T07:37:07.201Z,16.80
2019-05-20T07:38:05.109Z,16.80
2019-05-20T07:39:07.631Z,16.90
2019-05-20T07:40:05.480Z,16.90
2019-05-20T07:41:08.202Z,17.00
2019-05-20T07:42:05.074Z,17.00
2019-05-20T07:43:07.593Z,17.10
2019-05-20T07:44:05.377Z,17.00
2019-05-20T07:45:04.831Z,17.20
2019-05-20T07:46:07.430Z,17.30
2019-05-20T07:47:05.273Z,17.30
2019-05-20T07:48:05.391Z,17.40
2019-05-20T07:49:05.465Z,17.50
2019-05-20T07:50:05.559Z,17.50
2019-05-20T07:51:05.499Z,17.60
2019-05-20T07:52:05.597Z,17.70
2019-05-20T07:53:07.319Z,17.80
2019-05-20T07:54:05.446Z,17.80
2019-05-20T07:55:05.573Z,17.80
2019-05-20T07:56:05.572Z,17.90
2019-05-20T07:57:05.540Z,17.90
2019-05-20T07:58:05.639Z,17.90
2019-05-20T07:59:07.203Z,18.00
2019-05-20T08:00:05.041Z,18.00
2019-05-20T08:01:07.542Z,18.00
2019-05-20T08:02:05.382Z,18.00
2019-05-20T08:03:05.432Z,18.00
2019-05-20T08:04:07.914Z,18.10
2019-05-20T08:05:04.775Z,18.10
2019-05-20T08:06:07.488Z,18.10
2019-05-20T08:07:24.660Z,18.10
2019-05-20T08:08:05.032Z,18.10
2019-05-20T08:09:07.719Z,18.20
2019-05-20T08:10:05.544Z,18.10
2019-05-20T08:11:05.605Z,18.10
2019-05-20T08:12:07.141Z,18.20
2019-05-20T08:13:04.916Z,18.20
2019-05-20T08:14:07.406Z,18.20
2019-05-20T08:15:07.938Z,18.20
2019-05-20T08:16:07.388Z,18.20
2019-05-20T08:17:05.293Z,18.20
2019-05-20T08:18:05.319Z,18.30
2019-05-20T08:19:05.289Z,18.30
2019-05-20T08:20:05.255Z,18.30
2019-05-20T08:21:05.219Z,18.40
2019-05-20T08:22:05.180Z,18.40
2019-05-20T08:23:05.305Z,18.50
2019-05-20T08:24:07.916Z,18.50
2019-05-20T08:25:04.730Z,18.50
2019-05-20T08:26:07.285Z,18.50
2019-05-20T08:27:07.619Z,18.60
2019-05-20T08:28:05.401Z,18.50
2019-05-20T08:29:07.892Z,18.60
2019-05-20T08:30:04.706Z,18.60
2019-05-20T08:31:04.719Z,18.60
2019-05-20T08:32:04.742Z,18.60
2019-05-20T08:33:05.131Z,18.60
2019-05-20T08:34:05.145Z,18.60
2019-05-20T08:35:07.792Z,18.80
2019-05-20T08:36:04.714Z,18.70
2019-05-20T08:37:05.036Z,18.80
2019-05-20T08:38:05.016Z,18.80
2019-05-20T08:39:04.991Z,18.80
2019-05-20T08:40:07.477Z,18.80
2019-05-20T08:41:05.326Z,18.70
2019-05-20T08:42:07.802Z,18.80
2019-05-20T08:43:04.829Z,18.80
2019-05-20T08:44:10.031Z,18.70
2019-05-20T08:45:04.916Z,18.70
2019-05-20T08:46:07.677Z,18.80
2019-05-20T08:47:07.984Z,18.70
2019-05-20T08:48:04.833Z,18.80
2019-05-20T08:49:10.327Z,18.80
2019-05-20T08:50:07.090Z,18.80
2019-05-20T08:51:07.912Z,18.90
2019-05-20T08:52:04.803Z,18.90
2019-05-20T08:53:04.858Z,19.00
2019-05-20T08:54:07.382Z,19.10
2019-05-20T08:55:07.850Z,19.20
2019-05-20T08:56:04.831Z,19.20
2019-05-20T08:57:07.340Z,19.30
2019-05-20T08:58:05.162Z,19.30
2019-05-20T08:59:10.207Z,19.50
2019-05-20T09:00:04.993Z,19.50
2019-05-20T09:01:05.202Z,19.60
2019-05-20T09:02:05.289Z,19.60
2019-05-20T09:03:05.252Z,19.70
2019-05-20T09:04:05.209Z,19.70
2019-05-20T09:05:05.205Z,19.80
2019-05-20T09:06:05.289Z,19.80
2019-05-20T09:07:05.670Z,19.90
2019-05-20T09:08:05.315Z,19.80
2019-05-20T09:09:05.341Z,19.80
2019-05-20T09:10:05.394Z,19.80
2019-05-20T09:11:05.490Z,19.80
2019-05-20T09:12:08.213Z,19.80
2019-05-20T09:13:05.215Z,19.80
2019-05-20T09:14:07.855Z,19.80
2019-05-20T09:15:04.723Z,19.80
2019-05-20T09:16:04.713Z,19.80
2019-05-20T09:17:04.791Z,19.90
2019-05-20T09:18:04.946Z,19.90
2019-05-20T09:19:04.955Z,19.90
2019-05-20T09:20:07.538Z,19.90
2019-05-20T09:21:07.963Z,20.00
2019-05-20T09:22:04.898Z,20.00
2019-05-20T09:23:05.244Z,20.00
2019-05-20T09:24:05.206Z,20.00
2019-05-20T09:25:05.370Z,20.00
2019-05-20T09:26:05.515Z,20.10
2019-05-20T09:27:05.443Z,20.00
2019-05-20T09:28:05.430Z,20.00
2019-05-20T09:29:11.185Z,20.00
2019-05-20T09:30:08.184Z,20.10
2019-05-20T09:31:05.136Z,20.10
2019-05-20T09:32:07.714Z,20.10
2019-05-20T09:33:08.253Z,20.10
2019-05-20T09:34:07.725Z,20.20
2019-05-20T09:35:04.600Z,20.20
2019-05-20T09:36:07.297Z,20.20
2019-05-20T09:37:07.659Z,20.20
2019-05-20T09:38:17.597Z,20.20
2019-05-20T09:39:07.613Z,20.30
2019-05-20T09:40:05.393Z,20.30
2019-05-20T09:41:05.395Z,20.30
2019-05-20T09:42:05.464Z,20.30
2019-05-20T09:43:05.490Z,20.40
2019-05-20T09:44:07.622Z,20.40
2019-05-20T09:45:05.415Z,20.40
2019-05-20T09:46:07.873Z,20.40
2019-05-20T09:47:05.464Z,20.50
2019-05-20T09:48:07.328Z,20.50
2019-05-20T09:49:07.773Z,20.60
2019-05-20T09:50:04.667Z,20.60
2019-05-20T09:51:04.673Z,20.60
2019-05-20T09:52:04.722Z,20.60
2019-05-20T09:53:06.993Z,20.60
2019-05-20T09:54:08.080Z,20.70
2019-05-20T09:55:04.886Z,20.60
2019-05-20T09:56:05.789Z,20.70
2019-05-20T09:57:04.870Z,20.60
2019-05-20T09:58:07.456Z,20.60
2019-05-20T09:59:05.247Z,20.60
2019-05-20T10:00:05.193Z,20.70
2019-05-20T10:01:07.653Z,20.80
2019-05-20T10:02:05.450Z,20.70
2019-05-20T10:03:06.426Z,20.80
2019-05-20T10:04:04.642Z,20.80
2019-05-20T10:05:07.278Z,20.80
2019-05-20T10:06:10.169Z,20.80
2019-05-20T10:07:07.550Z,20.80
2019-05-20T10:08:05.466Z,20.80
2019-05-20T10:09:08.107Z,20.80
2019-05-20T10:10:05.121Z,20.80
2019-05-20T10:11:07.821Z,20.80
2019-05-20T10:12:04.668Z,20.80
2019-05-20T10:13:04.774Z,20.80
2019-05-20T10:14:05.288Z,20.80
2019-05-20T10:15:05.283Z,20.80
2019-05-20T10:16:05.249Z,20.80
2019-05-20T10:17:05.652Z,20.80
2019-05-20T10:18:04.622Z,20.90
2019-05-20T10:19:05.609Z,20.90
2019-05-20T10:20:04.723Z,20.90
2019-05-20T10:21:07.284Z,21.00
2019-05-20T10:22:07.793Z,21.10
2019-05-20T10:23:04.650Z,21.00
2019-05-20T10:24:04.673Z,21.10
2019-05-20T10:25:07.189Z,21.10
2019-05-20T10:26:05.190Z,21.10
2019-05-20T10:27:05.171Z,21.10
2019-05-20T10:28:05.184Z,21.10
2019-05-20T10:29:07.855Z,21.10
2019-05-20T10:30:04.622Z,21.10
2019-05-20T10:31:08.058Z,21.20
2019-05-20T10:32:07.386Z,21.20
2019-05-20T10:33:08.955Z,21.20
2019-05-20T10:34:05.566Z,21.10
2019-05-20T10:35:05.645Z,21.10
2019-05-20T10:36:04.719Z,21.10
2019-05-20T10:37:07.217Z,21.10
2019-05-20T10:38:05.006Z,21.00
2019-05-20T10:39:07.776Z,21.00
2019-05-20T10:40:08.207Z,21.00
2019-05-20T10:41:05.058Z,21.00
2019-05-20T10:42:05.021Z,21.10
2019-05-20T10:43:04.993Z,21.10
2019-05-20T10:44:05.117Z,21.10
2019-05-20T10:45:05.391Z,21.10
2019-05-20T10:46:04.932Z,21.10
2019-05-20T10:47:07.445Z,21.10
2019-05-20T10:48:08.464Z,21.10
2019-05-20T10:49:05.057Z,21.10
2019-05-20T10:50:05.067Z,21.10
2019-05-20T10:51:05.087Z,21.00
2019-05-20T10:52:07.695Z,21.00
2019-05-20T10:53:05.691Z,21.00
2019-05-20T10:54:04.671Z,21.00
2019-05-20T10:55:04.777Z,20.90
2019-05-20T10:56:04.831Z,20.90
2019-05-20T10:57:04.846Z,20.90
2019-05-20T10:58:04.801Z,20.90
2019-05-20T10:59:15.018Z,21.00
2019-05-20T11:00:05.259Z,21.00
2019-05-20T11:01:05.247Z,21.00
2019-05-20T11:02:05.221Z,21.00
2019-05-20T11:03:07.699Z,21.00
2019-05-20T11:04:05.522Z,21.00
2019-05-20T11:05:07.414Z,21.00
2019-05-20T11:06:05.498Z,21.10
2019-05-20T11:07:10.054Z,21.10
2019-05-20T11:08:07.610Z,21.10
2019-05-20T11:09:13.455Z,21.10
2019-05-20T11:10:05.422Z,21.10
2019-05-20T11:11:07.881Z,21.20
2019-05-20T11:12:07.162Z,21.20
2019-05-20T11:13:07.610Z,21.20
2019-05-20T11:14:05.455Z,21.30
2019-05-20T11:15:05.589Z,21.30
2019-05-20T11:16:07.122Z,21.30
2019-05-20T11:17:07.616Z,21.30
2019-05-20T11:18:08.041Z,21.30
2019-05-20T11:19:07.472Z,21.30
2019-05-20T11:20:05.524Z,21.30
2019-05-20T11:21:08.127Z,21.30
2019-05-20T11:22:04.979Z,21.30
2019-05-20T11:23:04.969Z,21.30
2019-05-20T11:24:04.954Z,21.30
2019-05-20T11:25:04.968Z,21.30
2019-05-20T11:26:04.987Z,21.30
2019-05-20T11:27:07.780Z,21.30
2019-05-20T11:28:11.229Z,21.30
2019-05-20T11:29:04.991Z,21.30
2019-05-20T11:30:07.487Z,21.30
2019-05-20T11:31:05.279Z,21.30
2019-05-20T11:32:05.241Z,21.30
2019-05-20T11:33:05.253Z,21.30
2019-05-20T11:34:05.193Z,21.30
2019-05-20T11:35:07.688Z,21.30
2019-05-20T11:36:05.643Z,21.30
2019-05-20T11:37:07.178Z,21.40
2019-05-20T11:38:05.079Z,21.40
2019-05-20T11:39:07.223Z,21.40
2019-05-20T11:40:05.653Z,21.40
2019-05-20T11:41:08.034Z,21.40
2019-05-20T11:42:04.861Z,21.40
2019-05-20T11:43:04.990Z,21.40
2019-05-20T11:44:05.035Z,21.50
2019-05-20T11:45:04.828Z,21.40
2019-05-20T11:46:04.788Z,21.40
2019-05-20T11:47:07.394Z,21.50
2019-05-20T11:48:05.383Z,21.50
2019-05-20T11:49:05.400Z,21.50
2019-05-20T11:50:07.985Z,21.50
2019-05-20T11:51:07.426Z,21.50
2019-05-20T11:52:07.848Z,21.50
2019-05-20T11:53:04.817Z,21.50
2019-05-20T11:54:04.845Z,21.50
2019-05-20T11:55:04.816Z,21.50
2019-05-20T11:56:04.831Z,21.50
2019-05-20T11:57:04.798Z,21.50
2019-05-20T11:58:14.921Z,21.50
2019-05-20T11:59:08.061Z,21.40
2019-05-20T12:00:04.891Z,21.40
2019-05-20T12:01:04.851Z,21.40
2019-05-20T12:02:07.455Z,21.40
2019-05-20T12:03:05.308Z,21.40
2019-05-20T12:04:05.694Z,21.40
2019-05-20T12:05:04.874Z,21.30
2019-05-20T12:06:05.153Z,21.30
2019-05-20T12:07:04.833Z,21.30
2019-05-20T12:08:07.692Z,21.30
2019-05-20T12:09:05.614Z,21.30
2019-05-20T12:10:08.138Z,21.20
2019-05-20T12:11:07.442Z,21.20
2019-05-20T12:12:05.283Z,21.20
2019-05-20T12:13:05.338Z,21.20
2019-05-20T12:14:07.881Z,21.10
2019-05-20T12:15:05.596Z,21.10
2019-05-20T12:16:05.104Z,21.10
2019-05-20T12:17:05.118Z,21.10
2019-05-20T12:18:05.087Z,21.00
2019-05-20T12:19:07.687Z,21.00
2019-05-20T12:20:06.895Z,21.00
2019-05-20T12:21:05.377Z,20.90
2019-05-20T12:22:05.479Z,21.00
2019-05-20T12:23:04.640Z,20.90
2019-05-20T12:24:04.640Z,20.90
2019-05-20T12:25:05.585Z,21.00
2019-05-20T12:26:08.155Z,21.00
2019-05-20T12:27:07.478Z,20.90
2019-05-20T12:28:07.855Z,20.90
2019-05-20T12:29:04.681Z,20.90
2019-05-20T12:30:07.317Z,20.90
2019-05-20T12:31:05.285Z,20.90
2019-05-20T12:32:07.793Z,20.80
2019-05-20T12:33:18.299Z,20.80
2019-05-20T12:34:07.195Z,20.80
2019-05-20T12:35:07.553Z,20.80
2019-05-20T12:36:05.404Z,20.80
2019-05-20T12:37:07.859Z,20.80
2019-05-20T12:38:04.692Z,20.80
2019-05-20T12:39:04.647Z,20.80
2019-05-20T12:40:07.371Z,20.80
2019-05-20T12:41:05.451Z,20.80
2019-05-20T12:42:07.923Z,20.80
2019-05-20T12:43:04.882Z,20.80
2019-05-20T12:44:11.240Z,20.80
2019-05-20T12:45:07.617Z,20.80
2019-05-20T12:46:07.934Z,20.90
2019-05-20T12:47:04.724Z,20.80
2019-05-20T12:48:04.654Z,20.90
2019-05-20T12:49:04.726Z,20.90
2019-05-20T12:50:07.564Z,20.90
2019-05-20T12:51:05.462Z,20.90
2019-05-20T12:52:08.109Z,21.00